sensor_id;sensor_type;location;lat;lon;timestamp;P1;durP1;ratioP1;P2;durP2;ratioP2
14358;SDS011;7263;49.418;11.064;2022-10-18T00:01:11;11.23;;;6.33;;
14358;SDS011;7263;49.418;11.064;2022-10-18T00:03:39;6.97;;;6.27;;
14358;SDS011;7263;49.418;11.064;2022-10-18T00:06:07;7.23;;;6.33;;
14358;SDS011;7263;49.418;11.064;2022-10-18T00:08:38;6.87;;;5.97;;
14358;SDS011;7263;49.418;11.064;2022-10-18T00:11:06;7.40;;;6.17;;
14358;SDS011;7263;49.418;11.064;2022-10-18T00:13:33;7.73;;;5.87;;
14358;SDS011;7263;49.418;11.064;2022-10-18T00:16:00;10.40;;;6.27;;
14358;SDS011;7263;49.418;11.064;2022-10-18T00:18:29;9.83;;;6.60;;
14358;SDS011;7263;49.418;11.064;2022-10-18T00:20:57;10.13;;;6.33;;
14358;SDS011;7263;49.418;11.064;2022-10-18T00:23:27;7.40;;;6.37;;
14358;SDS011;7263;49.418;11.064;2022-10-18T00:25:59;7.70;;;6.23;;
14358;SDS011;7263;49.418;11.064;2022-10-18T00:28:27;7.63;;;6.67;;
14358;SDS011;7263;49.418;11.064;2022-10-18T00:30:53;8.37;;;7.20;;
14358;SDS011;7263;49.418;11.064;2022-10-18T00:33:20;7.80;;;6.50;;
14358;SDS011;7263;49.418;11.064;2022-10-18T00:35:47;7.37;;;6.67;;
14358;SDS011;7263;49.418;11.064;2022-10-18T00:38:14;8.70;;;7.17;;
14358;SDS011;7263;49.418;11.064;2022-10-18T00:40:43;7.60;;;6.57;;
14358;SDS011;7263;49.418;11.064;2022-10-18T00:43:12;8.93;;;6.20;;
14358;SDS011;7263;49.418;11.064;2022-10-18T00:45:41;9.97;;;7.03;;
14358;SDS011;7263;49.418;11.064;2022-10-18T00:48:08;9.17;;;6.23;;
14358;SDS011;7263;49.418;11.064;2022-10-18T00:50:36;10.83;;;6.37;;
14358;SDS011;7263;49.418;11.064;2022-10-18T00:53:05;10.40;;;6.60;;
14358;SDS011;7263;49.418;11.064;2022-10-18T00:55:35;9.97;;;6.40;;
14358;SDS011;7263;49.418;11.064;2022-10-18T00:58:03;10.67;;;6.20;;
14358;SDS011;7263;49.418;11.064;2022-10-18T01:00:31;6.67;;;5.80;;
14358;SDS011;7263;49.418;11.064;2022-10-18T01:03:03;6.77;;;6.13;;
14358;SDS011;7263;49.418;11.064;2022-10-18T01:05:30;6.73;;;6.10;;
14358;SDS011;7263;49.418;11.064;2022-10-18T01:08:05;8.47;;;6.07;;
14358;SDS011;7263;49.418;11.064;2022-10-18T01:10:53;7.23;;;5.47;;
14358;SDS011;7263;49.418;11.064;2022-10-18T01:13:34;9.00;;;6.47;;
14358;SDS011;7263;49.418;11.064;2022-10-18T01:16:08;7.60;;;6.10;;
14358;SDS011;7263;49.418;11.064;2022-10-18T01:18:43;6.37;;;5.77;;
14358;SDS011;7263;49.418;11.064;2022-10-18T01:21:16;8.10;;;5.40;;
14358;SDS011;7263;49.418;11.064;2022-10-18T01:27:03;7.43;;;6.00;;
14358;SDS011;7263;49.418;11.064;2022-10-18T01:29:57;8.30;;;5.53;;
14358;SDS011;7263;49.418;11.064;2022-10-18T01:32:38;7.33;;;5.50;;
14358;SDS011;7263;49.418;11.064;2022-10-18T01:35:10;9.60;;;5.93;;
14358;SDS011;7263;49.418;11.064;2022-10-18T01:37:39;11.47;;;6.10;;
14358;SDS011;7263;49.418;11.064;2022-10-18T01:40:08;7.90;;;6.40;;
14358;SDS011;7263;49.418;11.064;2022-10-18T01:42:39;7.53;;;5.80;;
14358;SDS011;7263;49.418;11.064;2022-10-18T01:45:07;9.83;;;5.40;;
14358;SDS011;7263;49.418;11.064;2022-10-18T01:47:34;9.93;;;5.70;;
14358;SDS011;7263;49.418;11.064;2022-10-18T01:50:04;6.63;;;5.87;;
14358;SDS011;7263;49.418;11.064;2022-10-18T01:52:32;8.07;;;6.07;;
14358;SDS011;7263;49.418;11.064;2022-10-18T01:54:59;10.23;;;6.73;;
14358;SDS011;7263;49.418;11.064;2022-10-18T01:57:28;7.60;;;6.57;;
14358;SDS011;7263;49.418;11.064;2022-10-18T02:00:03;7.13;;;6.37;;
14358;SDS011;7263;49.418;11.064;2022-10-18T02:02:38;8.30;;;6.33;;
14358;SDS011;7263;49.418;11.064;2022-10-18T02:05:12;8.30;;;5.90;;
14358;SDS011;7263;49.418;11.064;2022-10-18T02:07:46;6.80;;;5.90;;
14358;SDS011;7263;49.418;11.064;2022-10-18T02:10:17;8.27;;;6.50;;
14358;SDS011;7263;49.418;11.064;2022-10-18T02:12:48;7.53;;;6.37;;
14358;SDS011;7263;49.418;11.064;2022-10-18T02:15:18;7.60;;;6.33;;
14358;SDS011;7263;49.418;11.064;2022-10-18T02:17:48;9.73;;;6.40;;
14358;SDS011;7263;49.418;11.064;2022-10-18T02:20:18;7.23;;;6.53;;
14358;SDS011;7263;49.418;11.064;2022-10-18T02:22:47;9.63;;;6.60;;
14358;SDS011;7263;49.418;11.064;2022-10-18T02:25:15;7.60;;;6.80;;
14358;SDS011;7263;49.418;11.064;2022-10-18T02:27:46;8.83;;;6.63;;
14358;SDS011;7263;49.418;11.064;2022-10-18T02:30:13;9.57;;;6.43;;
14358;SDS011;7263;49.418;11.064;2022-10-18T02:32:41;8.47;;;6.40;;
14358;SDS011;7263;49.418;11.064;2022-10-18T02:35:16;7.10;;;6.40;;
14358;SDS011;7263;49.418;11.064;2022-10-18T02:37:49;8.43;;;7.10;;
14358;SDS011;7263;49.418;11.064;2022-10-18T02:40:18;10.17;;;7.23;;
14358;SDS011;7263;49.418;11.064;2022-10-18T02:42:46;9.67;;;6.97;;
14358;SDS011;7263;49.418;11.064;2022-10-18T02:45:14;8.67;;;7.20;;
14358;SDS011;7263;49.418;11.064;2022-10-18T02:47:42;8.00;;;7.27;;
14358;SDS011;7263;49.418;11.064;2022-10-18T02:50:09;7.87;;;7.07;;
14358;SDS011;7263;49.418;11.064;2022-10-18T02:52:37;7.93;;;6.93;;
14358;SDS011;7263;49.418;11.064;2022-10-18T02:55:04;7.93;;;7.07;;
14358;SDS011;7263;49.418;11.064;2022-10-18T02:57:32;7.63;;;6.83;;
14358;SDS011;7263;49.418;11.064;2022-10-18T02:59:59;8.03;;;6.47;;
14358;SDS011;7263;49.418;11.064;2022-10-18T03:02:26;10.90;;;6.73;;
14358;SDS011;7263;49.418;11.064;2022-10-18T03:04:53;10.67;;;7.37;;
14358;SDS011;7263;49.418;11.064;2022-10-18T03:07:20;7.83;;;7.00;;
14358;SDS011;7263;49.418;11.064;2022-10-18T03:09:49;7.50;;;6.70;;
14358;SDS011;7263;49.418;11.064;2022-10-18T03:12:15;8.47;;;6.90;;
14358;SDS011;7263;49.418;11.064;2022-10-18T03:14:42;9.17;;;6.63;;
14358;SDS011;7263;49.418;11.064;2022-10-18T03:17:09;8.03;;;7.10;;
14358;SDS011;7263;49.418;11.064;2022-10-18T03:19:36;7.93;;;7.13;;
14358;SDS011;7263;49.418;11.064;2022-10-18T03:22:03;8.97;;;7.53;;
14358;SDS011;7263;49.418;11.064;2022-10-18T03:24:30;9.43;;;6.37;;
14358;SDS011;7263;49.418;11.064;2022-10-18T03:26:59;8.90;;;6.97;;
14358;SDS011;7263;49.418;11.064;2022-10-18T03:29:26;8.30;;;7.10;;
14358;SDS011;7263;49.418;11.064;2022-10-18T03:31:53;7.13;;;6.43;;
14358;SDS011;7263;49.418;11.064;2022-10-18T03:34:20;8.47;;;7.17;;
14358;SDS011;7263;49.418;11.064;2022-10-18T03:36:47;9.30;;;6.80;;
14358;SDS011;7263;49.418;11.064;2022-10-18T03:39:14;14.77;;;6.80;;
14358;SDS011;7263;49.418;11.064;2022-10-18T03:41:41;8.13;;;7.10;;
14358;SDS011;7263;49.418;11.064;2022-10-18T03:44:10;8.13;;;6.83;;
14358;SDS011;7263;49.418;11.064;2022-10-18T03:46:36;7.90;;;7.07;;
14358;SDS011;7263;49.418;11.064;2022-10-18T03:49:03;9.77;;;6.93;;
14358;SDS011;7263;49.418;11.064;2022-10-18T03:51:31;9.73;;;7.13;;
14358;SDS011;7263;49.418;11.064;2022-10-18T03:53:58;10.00;;;7.50;;
14358;SDS011;7263;49.418;11.064;2022-10-18T03:56:25;9.10;;;6.97;;
14358;SDS011;7263;49.418;11.064;2022-10-18T03:58:52;9.30;;;6.90;;
14358;SDS011;7263;49.418;11.064;2022-10-18T04:01:20;12.07;;;7.90;;
14358;SDS011;7263;49.418;11.064;2022-10-18T04:03:47;11.63;;;7.70;;
14358;SDS011;7263;49.418;11.064;2022-10-18T04:06:14;7.83;;;6.70;;
14358;SDS011;7263;49.418;11.064;2022-10-18T04:08:41;10.67;;;7.20;;
14358;SDS011;7263;49.418;11.064;2022-10-18T04:11:08;9.13;;;7.30;;
14358;SDS011;7263;49.418;11.064;2022-10-18T04:13:36;8.83;;;7.10;;
14358;SDS011;7263;49.418;11.064;2022-10-18T04:16:03;9.20;;;7.63;;
14358;SDS011;7263;49.418;11.064;2022-10-18T04:18:32;8.73;;;6.93;;
14358;SDS011;7263;49.418;11.064;2022-10-18T04:20:59;8.33;;;7.17;;
14358;SDS011;7263;49.418;11.064;2022-10-18T04:23:26;10.57;;;7.77;;
14358;SDS011;7263;49.418;11.064;2022-10-18T04:25:53;9.03;;;6.60;;
14358;SDS011;7263;49.418;11.064;2022-10-18T04:28:20;10.53;;;7.33;;
14358;SDS011;7263;49.418;11.064;2022-10-18T04:30:50;7.70;;;6.80;;
14358;SDS011;7263;49.418;11.064;2022-10-18T04:33:17;8.57;;;7.37;;
14358;SDS011;7263;49.418;11.064;2022-10-18T04:35:45;7.60;;;6.70;;
14358;SDS011;7263;49.418;11.064;2022-10-18T04:38:12;7.70;;;6.73;;
14358;SDS011;7263;49.418;11.064;2022-10-18T04:40:39;10.37;;;6.70;;
14358;SDS011;7263;49.418;11.064;2022-10-18T04:43:06;10.07;;;6.83;;
14358;SDS011;7263;49.418;11.064;2022-10-18T04:45:33;9.43;;;7.33;;
14358;SDS011;7263;49.418;11.064;2022-10-18T04:48:01;9.37;;;7.40;;
14358;SDS011;7263;49.418;11.064;2022-10-18T04:50:28;7.43;;;6.63;;
14358;SDS011;7263;49.418;11.064;2022-10-18T04:52:57;8.83;;;7.27;;
14358;SDS011;7263;49.418;11.064;2022-10-18T04:55:23;7.87;;;6.70;;
14358;SDS011;7263;49.418;11.064;2022-10-18T04:57:51;9.87;;;7.23;;
14358;SDS011;7263;49.418;11.064;2022-10-18T05:00:18;7.40;;;6.70;;
14358;SDS011;7263;49.418;11.064;2022-10-18T05:02:45;10.47;;;7.17;;
14358;SDS011;7263;49.418;11.064;2022-10-18T05:05:12;9.40;;;6.93;;
14358;SDS011;7263;49.418;11.064;2022-10-18T05:07:39;7.37;;;6.60;;
14358;SDS011;7263;49.418;11.064;2022-10-18T05:10:08;7.87;;;7.10;;
14358;SDS011;7263;49.418;11.064;2022-10-18T05:12:35;9.93;;;6.77;;
14358;SDS011;7263;49.418;11.064;2022-10-18T05:15:02;8.73;;;7.07;;
14358;SDS011;7263;49.418;11.064;2022-10-18T05:17:29;10.93;;;7.00;;
14358;SDS011;7263;49.418;11.064;2022-10-18T05:19:56;7.97;;;7.07;;
14358;SDS011;7263;49.418;11.064;2022-10-18T05:22:23;9.47;;;7.30;;
14358;SDS011;7263;49.418;11.064;2022-10-18T05:24:50;8.50;;;6.73;;
14358;SDS011;7263;49.418;11.064;2022-10-18T05:27:19;9.03;;;7.27;;
14358;SDS011;7263;49.418;11.064;2022-10-18T05:29:46;8.33;;;6.63;;
14358;SDS011;7263;49.418;11.064;2022-10-18T05:32:13;10.40;;;6.40;;
14358;SDS011;7263;49.418;11.064;2022-10-18T05:34:40;14.20;;;6.97;;
14358;SDS011;7263;49.418;11.064;2022-10-18T05:37:07;8.40;;;6.47;;
14358;SDS011;7263;49.418;11.064;2022-10-18T05:39:35;8.13;;;6.67;;
14358;SDS011;7263;49.418;11.064;2022-10-18T05:42:02;10.83;;;6.83;;
14358;SDS011;7263;49.418;11.064;2022-10-18T05:44:31;6.97;;;6.27;;
14358;SDS011;7263;49.418;11.064;2022-10-18T05:46:57;6.87;;;6.17;;
14358;SDS011;7263;49.418;11.064;2022-10-18T05:49:24;6.93;;;6.20;;
14358;SDS011;7263;49.418;11.064;2022-10-18T05:51:52;9.00;;;6.13;;
14358;SDS011;7263;49.418;11.064;2022-10-18T05:54:18;6.63;;;5.90;;
14358;SDS011;7263;49.418;11.064;2022-10-18T05:56:46;8.00;;;6.53;;
14358;SDS011;7263;49.418;11.064;2022-10-18T05:59:12;7.77;;;5.87;;
14358;SDS011;7263;49.418;11.064;2022-10-18T06:01:41;7.63;;;6.13;;
14358;SDS011;7263;49.418;11.064;2022-10-18T06:04:08;6.80;;;6.07;;
14358;SDS011;7263;49.418;11.064;2022-10-18T06:06:35;9.20;;;6.40;;
14358;SDS011;7263;49.418;11.064;2022-10-18T06:09:03;8.33;;;6.00;;
14358;SDS011;7263;49.418;11.064;2022-10-18T06:11:32;12.17;;;6.30;;
14358;SDS011;7263;49.418;11.064;2022-10-18T06:13:59;6.47;;;5.70;;
14358;SDS011;7263;49.418;11.064;2022-10-18T06:16:26;7.27;;;5.80;;
14358;SDS011;7263;49.418;11.064;2022-10-18T06:18:55;8.37;;;5.47;;
14358;SDS011;7263;49.418;11.064;2022-10-18T06:21:24;6.73;;;5.80;;
14358;SDS011;7263;49.418;11.064;2022-10-18T06:23:51;8.37;;;5.20;;
14358;SDS011;7263;49.418;11.064;2022-10-18T06:26:19;9.27;;;5.90;;
14358;SDS011;7263;49.418;11.064;2022-10-18T06:28:46;8.27;;;5.77;;
14358;SDS011;7263;49.418;11.064;2022-10-18T06:31:13;7.87;;;5.67;;
14358;SDS011;7263;49.418;11.064;2022-10-18T06:33:41;8.20;;;5.97;;
14358;SDS011;7263;49.418;11.064;2022-10-18T06:36:12;11.03;;;5.73;;
14358;SDS011;7263;49.418;11.064;2022-10-18T06:38:39;9.27;;;5.87;;
14358;SDS011;7263;49.418;11.064;2022-10-18T06:41:06;5.93;;;5.37;;
14358;SDS011;7263;49.418;11.064;2022-10-18T06:43:33;8.57;;;5.97;;
14358;SDS011;7263;49.418;11.064;2022-10-18T06:46:01;10.83;;;6.10;;
14358;SDS011;7263;49.418;11.064;2022-10-18T06:48:29;7.43;;;5.63;;
14358;SDS011;7263;49.418;11.064;2022-10-18T06:50:56;6.03;;;5.40;;
14358;SDS011;7263;49.418;11.064;2022-10-18T06:53:26;9.37;;;5.70;;
14358;SDS011;7263;49.418;11.064;2022-10-18T06:55:57;6.30;;;5.47;;
14358;SDS011;7263;49.418;11.064;2022-10-18T06:58:25;7.90;;;6.17;;
14358;SDS011;7263;49.418;11.064;2022-10-18T07:00:52;7.60;;;5.40;;
14358;SDS011;7263;49.418;11.064;2022-10-18T07:03:19;6.23;;;5.47;;
14358;SDS011;7263;49.418;11.064;2022-10-18T07:05:47;8.30;;;5.70;;
14358;SDS011;7263;49.418;11.064;2022-10-18T07:08:14;6.90;;;5.30;;
14358;SDS011;7263;49.418;11.064;2022-10-18T07:10:42;12.50;;;6.63;;
14358;SDS011;7263;49.418;11.064;2022-10-18T07:13:16;9.03;;;7.33;;
14358;SDS011;7263;49.418;11.064;2022-10-18T07:15:43;7.10;;;5.80;;
14358;SDS011;7263;49.418;11.064;2022-10-18T07:18:10;8.83;;;6.17;;
14358;SDS011;7263;49.418;11.064;2022-10-18T07:20:38;11.40;;;6.87;;
14358;SDS011;7263;49.418;11.064;2022-10-18T07:23:04;10.57;;;6.87;;
14358;SDS011;7263;49.418;11.064;2022-10-18T07:25:33;10.50;;;6.63;;
14358;SDS011;7263;49.418;11.064;2022-10-18T07:28:01;7.70;;;6.37;;
14358;SDS011;7263;49.418;11.064;2022-10-18T07:30:28;10.10;;;6.40;;
14358;SDS011;7263;49.418;11.064;2022-10-18T07:32:55;10.93;;;6.37;;
14358;SDS011;7263;49.418;11.064;2022-10-18T07:35:22;9.87;;;6.30;;
14358;SDS011;7263;49.418;11.064;2022-10-18T07:37:49;9.27;;;7.47;;
14358;SDS011;7263;49.418;11.064;2022-10-18T07:40:16;8.83;;;6.43;;
14358;SDS011;7263;49.418;11.064;2022-10-18T07:42:43;8.97;;;6.30;;
14358;SDS011;7263;49.418;11.064;2022-10-18T07:45:11;9.57;;;7.10;;
14358;SDS011;7263;49.418;11.064;2022-10-18T07:47:38;11.20;;;8.03;;
14358;SDS011;7263;49.418;11.064;2022-10-18T07:50:06;25.50;;;20.80;;
14358;SDS011;7263;49.418;11.064;2022-10-18T07:52:33;16.50;;;13.20;;
14358;SDS011;7263;49.418;11.064;2022-10-18T07:55:00;17.93;;;14.13;;
14358;SDS011;7263;49.418;11.064;2022-10-18T07:57:27;16.77;;;13.87;;
14358;SDS011;7263;49.418;11.064;2022-10-18T07:59:54;12.23;;;10.13;;
14358;SDS011;7263;49.418;11.064;2022-10-18T08:02:23;13.97;;;9.80;;
14358;SDS011;7263;49.418;11.064;2022-10-18T08:04:50;10.53;;;7.13;;
14358;SDS011;7263;49.418;11.064;2022-10-18T08:07:17;8.70;;;6.57;;
14358;SDS011;7263;49.418;11.064;2022-10-18T08:09:44;10.40;;;6.87;;
14358;SDS011;7263;49.418;11.064;2022-10-18T08:12:11;10.30;;;6.30;;
14358;SDS011;7263;49.418;11.064;2022-10-18T08:14:39;10.13;;;6.53;;
14358;SDS011;7263;49.418;11.064;2022-10-18T08:17:06;10.80;;;8.93;;
14358;SDS011;7263;49.418;11.064;2022-10-18T08:19:35;13.57;;;9.32;;
14358;SDS011;7263;49.418;11.064;2022-10-18T08:22:01;26.08;;;20.33;;
14358;SDS011;7263;49.418;11.064;2022-10-18T08:24:29;8.25;;;7.45;;
14358;SDS011;7263;49.418;11.064;2022-10-18T08:26:56;8.63;;;6.82;;
14358;SDS011;7263;49.418;11.064;2022-10-18T08:29:23;10.65;;;5.88;;
14358;SDS011;7263;49.418;11.064;2022-10-18T08:31:50;10.60;;;7.13;;
14358;SDS011;7263;49.418;11.064;2022-10-18T08:34:17;7.90;;;5.95;;
14358;SDS011;7263;49.418;11.064;2022-10-18T08:36:45;6.90;;;4.60;;
14358;SDS011;7263;49.418;11.064;2022-10-18T08:39:12;6.20;;;4.35;;
14358;SDS011;7263;49.418;11.064;2022-10-18T08:41:45;7.35;;;3.88;;
14358;SDS011;7263;49.418;11.064;2022-10-18T08:44:21;8.68;;;4.90;;
14358;SDS011;7263;49.418;11.064;2022-10-18T08:46:50;5.18;;;3.80;;
14358;SDS011;7263;49.418;11.064;2022-10-18T08:49:21;6.43;;;4.03;;
14358;SDS011;7263;49.418;11.064;2022-10-18T08:51:54;6.10;;;4.63;;
14358;SDS011;7263;49.418;11.064;2022-10-18T08:54:24;3.97;;;3.10;;
14358;SDS011;7263;49.418;11.064;2022-10-18T08:56:57;6.40;;;3.70;;
14358;SDS011;7263;49.418;11.064;2022-10-18T08:59:26;6.30;;;3.60;;
14358;SDS011;7263;49.418;11.064;2022-10-18T09:01:58;7.43;;;3.75;;
14358;SDS011;7263;49.418;11.064;2022-10-18T09:04:39;5.63;;;3.60;;
14358;SDS011;7263;49.418;11.064;2022-10-18T09:07:21;4.40;;;3.05;;
14358;SDS011;7263;49.418;11.064;2022-10-18T09:10:02;6.82;;;3.50;;
14358;SDS011;7263;49.418;11.064;2022-10-18T09:12:45;6.65;;;3.60;;
14358;SDS011;7263;49.418;11.064;2022-10-18T09:15:28;5.47;;;3.40;;
14358;SDS011;7263;49.418;11.064;2022-10-18T09:18:02;6.70;;;3.25;;
14358;SDS011;7263;49.418;11.064;2022-10-18T09:20:43;5.25;;;3.60;;
14358;SDS011;7263;49.418;11.064;2022-10-18T09:23:18;4.53;;;3.22;;
14358;SDS011;7263;49.418;11.064;2022-10-18T09:25:47;5.47;;;4.38;;
14358;SDS011;7263;49.418;11.064;2022-10-18T09:28:18;4.82;;;3.50;;
14358;SDS011;7263;49.418;11.064;2022-10-18T09:30:54;7.03;;;3.38;;
14358;SDS011;7263;49.418;11.064;2022-10-18T09:33:28;10.20;;;3.47;;
14358;SDS011;7263;49.418;11.064;2022-10-18T09:36:04;3.35;;;3.05;;
14358;SDS011;7263;49.418;11.064;2022-10-18T09:38:36;6.82;;;2.90;;
14358;SDS011;7263;49.418;11.064;2022-10-18T09:41:07;4.32;;;3.00;;
14358;SDS011;7263;49.418;11.064;2022-10-18T09:43:41;6.43;;;2.95;;
14358;SDS011;7263;49.418;11.064;2022-10-18T09:46:14;4.22;;;2.72;;
14358;SDS011;7263;49.418;11.064;2022-10-18T09:48:44;7.55;;;2.75;;
14358;SDS011;7263;49.418;11.064;2022-10-18T09:51:14;2.90;;;2.55;;
14358;SDS011;7263;49.418;11.064;2022-10-18T09:53:53;2.58;;;2.38;;
14358;SDS011;7263;49.418;11.064;2022-10-18T09:56:28;6.15;;;2.97;;
14358;SDS011;7263;49.418;11.064;2022-10-18T09:58:57;7.20;;;5.28;;
14358;SDS011;7263;49.418;11.064;2022-10-18T10:01:25;12.45;;;9.90;;
14358;SDS011;7263;49.418;11.064;2022-10-18T10:03:54;4.15;;;2.70;;
14358;SDS011;7263;49.418;11.064;2022-10-18T10:06:22;4.90;;;2.60;;
14358;SDS011;7263;49.418;11.064;2022-10-18T10:08:59;5.88;;;3.88;;
14358;SDS011;7263;49.418;11.064;2022-10-18T10:11:32;7.55;;;2.78;;
14358;SDS011;7263;49.418;11.064;2022-10-18T10:16:48;3.58;;;2.67;;
14358;SDS011;7263;49.418;11.064;2022-10-18T10:19:17;6.32;;;2.40;;
14358;SDS011;7263;49.418;11.064;2022-10-18T10:21:47;3.28;;;2.40;;
14358;SDS011;7263;49.418;11.064;2022-10-18T10:24:22;4.43;;;2.40;;
14358;SDS011;7263;49.418;11.064;2022-10-18T10:26:57;3.15;;;2.28;;
14358;SDS011;7263;49.418;11.064;2022-10-18T10:29:46;3.88;;;2.50;;
14358;SDS011;7263;49.418;11.064;2022-10-18T10:32:21;3.65;;;2.17;;
14358;SDS011;7263;49.418;11.064;2022-10-18T10:34:49;5.70;;;2.55;;
14358;SDS011;7263;49.418;11.064;2022-10-18T10:37:21;4.65;;;2.78;;
14358;SDS011;7263;49.418;11.064;2022-10-18T10:40:06;3.42;;;2.38;;
14358;SDS011;7263;49.418;11.064;2022-10-18T10:42:50;6.22;;;2.75;;
14358;SDS011;7263;49.418;11.064;2022-10-18T10:45:23;5.95;;;2.47;;
14358;SDS011;7263;49.418;11.064;2022-10-18T10:47:52;5.22;;;2.50;;
14358;SDS011;7263;49.418;11.064;2022-10-18T10:50:21;7.68;;;2.65;;
14358;SDS011;7263;49.418;11.064;2022-10-18T10:52:50;6.30;;;4.78;;
14358;SDS011;7263;49.418;11.064;2022-10-18T10:55:19;12.57;;;7.43;;
14358;SDS011;7263;49.418;11.064;2022-10-18T10:57:51;8.10;;;6.00;;
14358;SDS011;7263;49.418;11.064;2022-10-18T11:00:36;9.80;;;7.47;;
14358;SDS011;7263;49.418;11.064;2022-10-18T11:03:05;7.93;;;4.55;;
14358;SDS011;7263;49.418;11.064;2022-10-18T11:05:41;3.80;;;3.03;;
14358;SDS011;7263;49.418;11.064;2022-10-18T11:08:10;5.82;;;3.60;;
14358;SDS011;7263;49.418;11.064;2022-10-18T11:10:42;8.20;;;3.50;;
14358;SDS011;7263;49.418;11.064;2022-10-18T11:13:27;7.28;;;3.45;;
14358;SDS011;7263;49.418;11.064;2022-10-18T11:16:03;7.20;;;3.78;;
14358;SDS011;7263;49.418;11.064;2022-10-18T11:18:37;8.73;;;3.70;;
14358;SDS011;7263;49.418;11.064;2022-10-18T11:21:05;7.85;;;3.70;;
14358;SDS011;7263;49.418;11.064;2022-10-18T11:23:37;8.02;;;3.45;;
14358;SDS011;7263;49.418;11.064;2022-10-18T11:26:27;5.25;;;3.70;;
14358;SDS011;7263;49.418;11.064;2022-10-18T11:29:05;7.10;;;4.53;;
14358;SDS011;7263;49.418;11.064;2022-10-18T11:31:44;6.13;;;3.90;;
14358;SDS011;7263;49.418;11.064;2022-10-18T11:34:31;8.93;;;4.32;;
14358;SDS011;7263;49.418;11.064;2022-10-18T11:37:11;6.10;;;3.50;;
14358;SDS011;7263;49.418;11.064;2022-10-18T11:39:53;7.15;;;3.70;;
14358;SDS011;7263;49.418;11.064;2022-10-18T11:42:28;4.38;;;3.13;;
14358;SDS011;7263;49.418;11.064;2022-10-18T11:45:04;11.38;;;4.45;;
14358;SDS011;7263;49.418;11.064;2022-10-18T11:47:42;11.35;;;4.72;;
14358;SDS011;7263;49.418;11.064;2022-10-18T11:50:18;5.70;;;4.10;;
14358;SDS011;7263;49.418;11.064;2022-10-18T11:52:54;7.82;;;5.75;;
14358;SDS011;7263;49.418;11.064;2022-10-18T11:55:31;8.85;;;6.00;;
14358;SDS011;7263;49.418;11.064;2022-10-18T11:58:10;9.43;;;5.47;;
14358;SDS011;7263;49.418;11.064;2022-10-18T12:00:51;9.27;;;5.70;;
14358;SDS011;7263;49.418;11.064;2022-10-18T12:03:29;6.82;;;6.13;;
14358;SDS011;7263;49.418;11.064;2022-10-18T12:06:04;7.55;;;5.82;;
14358;SDS011;7263;49.418;11.064;2022-10-18T12:08:39;10.20;;;5.35;;
14358;SDS011;7263;49.418;11.064;2022-10-18T12:11:11;6.20;;;4.40;;
14358;SDS011;7263;49.418;11.064;2022-10-18T12:13:44;6.03;;;5.25;;
14358;SDS011;7263;49.418;11.064;2022-10-18T12:16:13;7.77;;;5.23;;
14358;SDS011;7263;49.418;11.064;2022-10-18T12:18:46;6.70;;;5.28;;
14358;SDS011;7263;49.418;11.064;2022-10-18T12:21:18;15.07;;;10.57;;
14358;SDS011;7263;49.418;11.064;2022-10-18T12:23:48;32.45;;;26.25;;
14358;SDS011;7263;49.418;11.064;2022-10-18T12:26:17;19.77;;;17.88;;
14358;SDS011;7263;49.418;11.064;2022-10-18T12:28:48;21.10;;;14.23;;
14358;SDS011;7263;49.418;11.064;2022-10-18T12:31:23;15.30;;;11.93;;
14358;SDS011;7263;49.418;11.064;2022-10-18T12:33:54;11.57;;;8.90;;
14358;SDS011;7263;49.418;11.064;2022-10-18T12:36:36;12.65;;;10.30;;
14358;SDS011;7263;49.418;11.064;2022-10-18T12:39:21;10.27;;;6.43;;
14358;SDS011;7263;49.418;11.064;2022-10-18T12:41:51;10.15;;;5.93;;
14358;SDS011;7263;49.418;11.064;2022-10-18T12:44:23;15.10;;;12.15;;
14358;SDS011;7263;49.418;11.064;2022-10-18T12:46:55;7.80;;;5.45;;
14358;SDS011;7263;49.418;11.064;2022-10-18T12:49:27;7.13;;;5.07;;
14358;SDS011;7263;49.418;11.064;2022-10-18T12:51:55;9.27;;;6.60;;
14358;SDS011;7263;49.418;11.064;2022-10-18T12:54:24;10.13;;;8.18;;
14358;SDS011;7263;49.418;11.064;2022-10-18T12:56:54;10.18;;;7.47;;
14358;SDS011;7263;49.418;11.064;2022-10-18T13:02:19;7.60;;;5.38;;
14358;SDS011;7263;49.418;11.064;2022-10-18T13:04:48;11.50;;;5.63;;
14358;SDS011;7263;49.418;11.064;2022-10-18T13:07:19;11.30;;;5.72;;
14358;SDS011;7263;49.418;11.064;2022-10-18T13:13:04;7.88;;;5.00;;
14358;SDS011;7263;49.418;11.064;2022-10-18T13:15:47;6.85;;;4.93;;
14358;SDS011;7263;49.418;11.064;2022-10-18T13:18:20;7.65;;;5.30;;
14358;SDS011;7263;49.418;11.064;2022-10-18T13:20:53;6.82;;;4.57;;
14358;SDS011;7263;49.418;11.064;2022-10-18T13:23:35;6.82;;;4.47;;
14358;SDS011;7263;49.418;11.064;2022-10-18T13:26:14;7.57;;;4.15;;
14358;SDS011;7263;49.418;11.064;2022-10-18T13:28:50;6.53;;;4.25;;
14358;SDS011;7263;49.418;11.064;2022-10-18T13:31:22;8.00;;;4.10;;
14358;SDS011;7263;49.418;11.064;2022-10-18T13:34:04;7.20;;;4.43;;
14358;SDS011;7263;49.418;11.064;2022-10-18T13:36:42;4.72;;;4.05;;
14358;SDS011;7263;49.418;11.064;2022-10-18T13:39:17;5.85;;;4.32;;
14358;SDS011;7263;49.418;11.064;2022-10-18T13:44:44;13.52;;;9.93;;
14358;SDS011;7263;49.418;11.064;2022-10-18T13:47:14;12.82;;;9.40;;
14358;SDS011;7263;49.418;11.064;2022-10-18T13:50:09;13.38;;;9.10;;
14358;SDS011;7263;49.418;11.064;2022-10-18T13:52:52;7.40;;;5.30;;
14358;SDS011;7263;49.418;11.064;2022-10-18T13:55:53;8.82;;;6.00;;
14358;SDS011;7263;49.418;11.064;2022-10-18T13:58:28;9.20;;;6.13;;
14358;SDS011;7263;49.418;11.064;2022-10-18T14:01:08;8.75;;;6.43;;
14358;SDS011;7263;49.418;11.064;2022-10-18T14:06:44;7.03;;;5.20;;
14358;SDS011;7263;49.418;11.064;2022-10-18T14:09:13;11.40;;;5.35;;
14358;SDS011;7263;49.418;11.064;2022-10-18T14:11:45;6.55;;;5.22;;
14358;SDS011;7263;49.418;11.064;2022-10-18T14:14:15;5.80;;;5.28;;
14358;SDS011;7263;49.418;11.064;2022-10-18T14:16:48;6.93;;;4.75;;
14358;SDS011;7263;49.418;11.064;2022-10-18T14:19:22;6.22;;;4.95;;
14358;SDS011;7263;49.418;11.064;2022-10-18T14:21:54;5.88;;;5.00;;
14358;SDS011;7263;49.418;11.064;2022-10-18T14:24:29;9.57;;;5.05;;
14358;SDS011;7263;49.418;11.064;2022-10-18T14:27:09;4.63;;;4.22;;
14358;SDS011;7263;49.418;11.064;2022-10-18T14:29:38;7.30;;;4.50;;
14358;SDS011;7263;49.418;11.064;2022-10-18T14:32:07;8.27;;;4.93;;
14358;SDS011;7263;49.418;11.064;2022-10-18T14:34:36;5.32;;;4.60;;
14358;SDS011;7263;49.418;11.064;2022-10-18T14:37:05;7.57;;;4.50;;
14358;SDS011;7263;49.418;11.064;2022-10-18T14:39:32;7.05;;;4.70;;
14358;SDS011;7263;49.418;11.064;2022-10-18T14:41:59;6.22;;;4.45;;
14358;SDS011;7263;49.418;11.064;2022-10-18T14:44:28;5.72;;;4.55;;
14358;SDS011;7263;49.418;11.064;2022-10-18T14:46:59;4.53;;;4.13;;
14358;SDS011;7263;49.418;11.064;2022-10-18T14:49:27;6.57;;;4.38;;
14358;SDS011;7263;49.418;11.064;2022-10-18T14:51:57;5.50;;;4.28;;
14358;SDS011;7263;49.418;11.064;2022-10-18T14:54:27;6.10;;;4.45;;
14358;SDS011;7263;49.418;11.064;2022-10-18T14:56:56;6.07;;;4.35;;
14358;SDS011;7263;49.418;11.064;2022-10-18T14:59:24;4.65;;;4.25;;
14358;SDS011;7263;49.418;11.064;2022-10-18T15:01:54;5.82;;;3.90;;
14358;SDS011;7263;49.418;11.064;2022-10-18T15:04:22;7.03;;;4.35;;
14358;SDS011;7263;49.418;11.064;2022-10-18T15:06:56;5.20;;;4.07;;
14358;SDS011;7263;49.418;11.064;2022-10-18T15:09:24;8.30;;;4.45;;
14358;SDS011;7263;49.418;11.064;2022-10-18T15:11:52;4.25;;;3.90;;
14358;SDS011;7263;49.418;11.064;2022-10-18T15:14:22;5.35;;;4.07;;
14358;SDS011;7263;49.418;11.064;2022-10-18T15:16:53;7.47;;;3.97;;
14358;SDS011;7263;49.418;11.064;2022-10-18T15:19:29;4.38;;;4.00;;
14358;SDS011;7263;49.418;11.064;2022-10-18T15:21:59;5.70;;;4.35;;
14358;SDS011;7263;49.418;11.064;2022-10-18T15:24:28;5.80;;;3.97;;